sensor_id;sensor_type;location;lat;lon;timestamp;P1;durP1;ratioP1;P2;durP2;ratioP2
25503;SDS011;13410;52.114;5.718;2024-01-30T00:01:51;23.70;;;14.85;;
25503;SDS011;13410;52.114;5.718;2024-01-30T00:04:17;21.90;;;14.57;;
25503;SDS011;13410;52.114;5.718;2024-01-30T00:06:43;23.48;;;14.32;;
25503;SDS011;13410;52.114;5.718;2024-01-30T00:09:09;21.98;;;14.40;;
25503;SDS011;13410;52.114;5.718;2024-01-30T00:11:36;20.30;;;13.73;;
25503;SDS011;13410;52.114;5.718;2024-01-30T00:14:02;21.02;;;14.02;;
25503;SDS011;13410;52.114;5.718;2024-01-30T00:16:28;21.77;;;14.45;;
25503;SDS011;13410;52.114;5.718;2024-01-30T00:18:54;23.83;;;14.13;;
25503;SDS011;13410;52.114;5.718;2024-01-30T00:21:20;22.50;;;14.27;;
25503;SDS011;13410;52.114;5.718;2024-01-30T00:23:46;21.67;;;13.43;;
25503;SDS011;13410;52.114;5.718;2024-01-30T00:26:12;19.98;;;14.40;;
25503;SDS011;13410;52.114;5.718;2024-01-30T00:28:39;19.85;;;13.57;;
25503;SDS011;13410;52.114;5.718;2024-01-30T00:31:05;19.30;;;13.55;;
25503;SDS011;13410;52.114;5.718;2024-01-30T00:33:31;22.20;;;14.20;;
25503;SDS011;13410;52.114;5.718;2024-01-30T00:35:57;21.25;;;13.82;;
25503;SDS011;13410;52.114;5.718;2024-01-30T00:38:22;21.05;;;13.93;;
25503;SDS011;13410;52.114;5.718;2024-01-30T00:40:48;21.20;;;14.10;;
25503;SDS011;13410;52.114;5.718;2024-01-30T00:43:14;20.23;;;13.90;;
25503;SDS011;13410;52.114;5.718;2024-01-30T00:45:40;19.35;;;13.57;;
25503;SDS011;13410;52.114;5.718;2024-01-30T00:48:06;22.55;;;14.75;;
25503;SDS011;13410;52.114;5.718;2024-01-30T00:50:32;22.95;;;14.65;;
25503;SDS011;13410;52.114;5.718;2024-01-30T00:52:57;21.85;;;13.93;;
25503;SDS011;13410;52.114;5.718;2024-01-30T00:55:23;22.65;;;13.85;;
25503;SDS011;13410;52.114;5.718;2024-01-30T00:57:48;21.58;;;14.02;;
25503;SDS011;13410;52.114;5.718;2024-01-30T01:00:14;19.30;;;13.88;;
25503;SDS011;13410;52.114;5.718;2024-01-30T01:02:42;21.85;;;14.50;;
25503;SDS011;13410;52.114;5.718;2024-01-30T01:05:08;23.63;;;14.02;;
25503;SDS011;13410;52.114;5.718;2024-01-30T01:07:33;22.85;;;14.43;;
25503;SDS011;13410;52.114;5.718;2024-01-30T01:09:59;24.40;;;14.77;;
25503;SDS011;13410;52.114;5.718;2024-01-30T01:12:25;21.00;;;14.35;;
25503;SDS011;13410;52.114;5.718;2024-01-30T01:14:50;20.48;;;13.95;;
25503;SDS011;13410;52.114;5.718;2024-01-30T01:17:16;23.60;;;14.18;;
25503;SDS011;13410;52.114;5.718;2024-01-30T01:19:43;21.30;;;14.07;;
25503;SDS011;13410;52.114;5.718;2024-01-30T01:22:09;21.98;;;13.60;;
25503;SDS011;13410;52.114;5.718;2024-01-30T01:24:35;21.85;;;14.07;;
25503;SDS011;13410;52.114;5.718;2024-01-30T01:27:01;19.42;;;13.93;;
25503;SDS011;13410;52.114;5.718;2024-01-30T01:29:27;21.45;;;13.50;;
25503;SDS011;13410;52.114;5.718;2024-01-30T01:31:57;22.73;;;14.00;;
25503;SDS011;13410;52.114;5.718;2024-01-30T01:34:23;19.73;;;13.32;;
25503;SDS011;13410;52.114;5.718;2024-01-30T01:36:49;20.83;;;13.07;;
25503;SDS011;13410;52.114;5.718;2024-01-30T01:39:15;20.63;;;13.23;;
25503;SDS011;13410;52.114;5.718;2024-01-30T01:41:41;19.33;;;13.45;;
25503;SDS011;13410;52.114;5.718;2024-01-30T01:44:07;21.38;;;13.48;;
25503;SDS011;13410;52.114;5.718;2024-01-30T01:46:33;22.13;;;13.30;;
25503;SDS011;13410;52.114;5.718;2024-01-30T01:49:02;18.48;;;12.73;;
25503;SDS011;13410;52.114;5.718;2024-01-30T01:51:29;19.60;;;13.10;;
25503;SDS011;13410;52.114;5.718;2024-01-30T01:53:58;21.27;;;13.57;;
25503;SDS011;13410;52.114;5.718;2024-01-30T01:56:27;21.20;;;13.40;;
25503;SDS011;13410;52.114;5.718;2024-01-30T01:58:54;20.83;;;13.32;;
25503;SDS011;13410;52.114;5.718;2024-01-30T02:01:20;21.77;;;13.65;;
25503;SDS011;13410;52.114;5.718;2024-01-30T02:03:47;20.13;;;13.10;;
25503;SDS011;13410;52.114;5.718;2024-01-30T02:06:13;20.65;;;13.00;;
25503;SDS011;13410;52.114;5.718;2024-01-30T02:08:41;20.90;;;13.43;;
25503;SDS011;13410;52.114;5.718;2024-01-30T02:11:07;19.88;;;13.35;;
25503;SDS011;13410;52.114;5.718;2024-01-30T02:13:35;19.50;;;13.18;;
25503;SDS011;13410;52.114;5.718;2024-01-30T02:16:00;19.63;;;13.27;;
25503;SDS011;13410;52.114;5.718;2024-01-30T02:18:26;22.85;;;13.65;;
25503;SDS011;13410;52.114;5.718;2024-01-30T02:20:53;19.40;;;12.88;;
25503;SDS011;13410;52.114;5.718;2024-01-30T02:23:21;19.02;;;12.85;;
25503;SDS011;13410;52.114;5.718;2024-01-30T02:25:49;17.55;;;12.60;;
25503;SDS011;13410;52.114;5.718;2024-01-30T02:28:17;20.25;;;13.40;;
25503;SDS011;13410;52.114;5.718;2024-01-30T02:30:43;20.70;;;13.60;;
25503;SDS011;13410;52.114;5.718;2024-01-30T02:33:09;24.13;;;13.18;;
25503;SDS011;13410;52.114;5.718;2024-01-30T02:35:35;22.98;;;14.13;;
25503;SDS011;13410;52.114;5.718;2024-01-30T02:38:00;19.52;;;13.27;;
25503;SDS011;13410;52.114;5.718;2024-01-30T02:40:26;22.65;;;13.77;;
25503;SDS011;13410;52.114;5.718;2024-01-30T02:42:52;23.50;;;13.40;;
25503;SDS011;13410;52.114;5.718;2024-01-30T02:45:18;18.85;;;12.90;;
25503;SDS011;13410;52.114;5.718;2024-01-30T02:47:43;18.02;;;12.73;;
25503;SDS011;13410;52.114;5.718;2024-01-30T02:50:09;18.75;;;12.55;;
25503;SDS011;13410;52.114;5.718;2024-01-30T02:52:35;19.05;;;12.35;;
25503;SDS011;13410;52.114;5.718;2024-01-30T02:55:01;17.55;;;12.35;;
25503;SDS011;13410;52.114;5.718;2024-01-30T02:57:27;16.45;;;12.07;;
25503;SDS011;13410;52.114;5.718;2024-01-30T02:59:53;19.10;;;12.80;;
25503;SDS011;13410;52.114;5.718;2024-01-30T03:02:19;18.25;;;12.48;;
25503;SDS011;13410;52.114;5.718;2024-01-30T03:04:45;22.10;;;12.57;;
25503;SDS011;13410;52.114;5.718;2024-01-30T03:07:10;17.85;;;12.23;;
25503;SDS011;13410;52.114;5.718;2024-01-30T03:09:36;18.38;;;12.70;;
25503;SDS011;13410;52.114;5.718;2024-01-30T03:12:03;15.93;;;11.52;;
25503;SDS011;13410;52.114;5.718;2024-01-30T03:14:32;16.85;;;11.32;;
25503;SDS011;13410;52.114;5.718;2024-01-30T03:16:58;18.23;;;11.43;;
25503;SDS011;13410;52.114;5.718;2024-01-30T03:19:23;17.13;;;11.90;;
25503;SDS011;13410;52.114;5.718;2024-01-30T03:21:49;18.55;;;12.07;;
25503;SDS011;13410;52.114;5.718;2024-01-30T03:24:16;17.98;;;11.90;;
25503;SDS011;13410;52.114;5.718;2024-01-30T03:26:42;19.73;;;12.48;;
25503;SDS011;13410;52.114;5.718;2024-01-30T03:29:08;18.08;;;12.13;;
25503;SDS011;13410;52.114;5.718;2024-01-30T03:31:34;18.25;;;12.35;;
25503;SDS011;13410;52.114;5.718;2024-01-30T03:34:00;18.88;;;13.13;;
25503;SDS011;13410;52.114;5.718;2024-01-30T03:36:26;17.98;;;11.93;;
25503;SDS011;13410;52.114;5.718;2024-01-30T03:38:52;18.42;;;12.07;;
25503;SDS011;13410;52.114;5.718;2024-01-30T03:41:18;17.65;;;12.15;;
25503;SDS011;13410;52.114;5.718;2024-01-30T03:43:43;20.38;;;12.23;;
25503;SDS011;13410;52.114;5.718;2024-01-30T03:46:11;18.92;;;12.40;;
25503;SDS011;13410;52.114;5.718;2024-01-30T03:48:37;18.83;;;12.57;;
25503;SDS011;13410;52.114;5.718;2024-01-30T03:51:02;17.98;;;12.25;;
25503;SDS011;13410;52.114;5.718;2024-01-30T03:53:28;18.63;;;11.95;;
25503;SDS011;13410;52.114;5.718;2024-01-30T03:55:54;17.67;;;11.80;;
25503;SDS011;13410;52.114;5.718;2024-01-30T03:58:20;17.52;;;11.65;;
25503;SDS011;13410;52.114;5.718;2024-01-30T04:00:45;19.38;;;12.57;;
25503;SDS011;13410;52.114;5.718;2024-01-30T04:03:11;21.48;;;12.43;;
25503;SDS011;13410;52.114;5.718;2024-01-30T04:05:37;18.92;;;11.38;;
25503;SDS011;13410;52.114;5.718;2024-01-30T04:08:02;18.52;;;12.50;;
25503;SDS011;13410;52.114;5.718;2024-01-30T04:10:28;19.27;;;12.60;;
25503;SDS011;13410;52.114;5.718;2024-01-30T04:12:54;17.83;;;11.55;;
25503;SDS011;13410;52.114;5.718;2024-01-30T04:15:19;18.33;;;11.48;;
25503;SDS011;13410;52.114;5.718;2024-01-30T04:17:45;19.50;;;11.70;;
25503;SDS011;13410;52.114;5.718;2024-01-30T04:20:14;16.92;;;11.30;;
25503;SDS011;13410;52.114;5.718;2024-01-30T04:22:42;18.17;;;11.87;;
25503;SDS011;13410;52.114;5.718;2024-01-30T04:25:09;17.58;;;11.55;;
25503;SDS011;13410;52.114;5.718;2024-01-30T04:27:35;18.58;;;11.60;;
25503;SDS011;13410;52.114;5.718;2024-01-30T04:30:00;17.63;;;11.23;;
25503;SDS011;13410;52.114;5.718;2024-01-30T04:32:26;16.20;;;11.55;;
25503;SDS011;13410;52.114;5.718;2024-01-30T04:34:51;18.08;;;11.23;;
25503;SDS011;13410;52.114;5.718;2024-01-30T04:37:17;16.73;;;11.75;;
25503;SDS011;13410;52.114;5.718;2024-01-30T04:39:43;16.58;;;11.93;;
25503;SDS011;13410;52.114;5.718;2024-01-30T04:42:08;18.17;;;10.75;;
25503;SDS011;13410;52.114;5.718;2024-01-30T04:44:34;16.38;;;10.90;;
25503;SDS011;13410;52.114;5.718;2024-01-30T04:46:59;16.73;;;11.25;;
25503;SDS011;13410;52.114;5.718;2024-01-30T04:49:26;16.27;;;11.20;;
25503;SDS011;13410;52.114;5.718;2024-01-30T04:51:52;16.10;;;11.18;;
25503;SDS011;13410;52.114;5.718;2024-01-30T04:54:18;17.02;;;10.55;;
25503;SDS011;13410;52.114;5.718;2024-01-30T04:56:44;16.20;;;10.40;;
25503;SDS011;13410;52.114;5.718;2024-01-30T04:59:10;18.45;;;10.73;;
25503;SDS011;13410;52.114;5.718;2024-01-30T05:01:36;17.35;;;10.90;;
25503;SDS011;13410;52.114;5.718;2024-01-30T05:04:02;15.95;;;10.50;;
25503;SDS011;13410;52.114;5.718;2024-01-30T05:06:28;17.42;;;11.10;;
25503;SDS011;13410;52.114;5.718;2024-01-30T05:08:54;15.27;;;10.35;;
25503;SDS011;13410;52.114;5.718;2024-01-30T05:11:20;18.77;;;10.90;;
25503;SDS011;13410;52.114;5.718;2024-01-30T05:13:46;15.55;;;10.75;;
25503;SDS011;13410;52.114;5.718;2024-01-30T05:16:12;17.75;;;10.93;;
25503;SDS011;13410;52.114;5.718;2024-01-30T05:18:38;16.60;;;10.65;;
25503;SDS011;13410;52.114;5.718;2024-01-30T05:21:05;16.27;;;10.98;;
25503;SDS011;13410;52.114;5.718;2024-01-30T05:23:31;16.67;;;10.68;;
25503;SDS011;13410;52.114;5.718;2024-01-30T05:25:57;13.63;;;10.65;;
25503;SDS011;13410;52.114;5.718;2024-01-30T05:28:22;16.40;;;10.70;;
25503;SDS011;13410;52.114;5.718;2024-01-30T05:30:49;16.63;;;10.98;;
25503;SDS011;13410;52.114;5.718;2024-01-30T05:33:14;14.13;;;10.90;;
25503;SDS011;13410;52.114;5.718;2024-01-30T05:35:40;14.90;;;10.55;;
25503;SDS011;13410;52.114;5.718;2024-01-30T05:38:06;17.50;;;10.55;;
25503;SDS011;13410;52.114;5.718;2024-01-30T05:40:32;13.57;;;10.00;;
25503;SDS011;13410;52.114;5.718;2024-01-30T05:42:57;16.98;;;10.00;;
25503;SDS011;13410;52.114;5.718;2024-01-30T05:45:25;15.82;;;10.35;;
25503;SDS011;13410;52.114;5.718;2024-01-30T05:47:52;16.00;;;10.43;;
25503;SDS011;13410;52.114;5.718;2024-01-30T05:50:19;15.68;;;10.45;;
25503;SDS011;13410;52.114;5.718;2024-01-30T05:52:45;16.83;;;10.25;;
25503;SDS011;13410;52.114;5.718;2024-01-30T05:55:11;15.88;;;9.95;;
25503;SDS011;13410;52.114;5.718;2024-01-30T05:57:37;16.83;;;9.90;;
25503;SDS011;13410;52.114;5.718;2024-01-30T06:00:04;16.38;;;10.25;;
25503;SDS011;13410;52.114;5.718;2024-01-30T06:02:30;16.98;;;10.20;;
25503;SDS011;13410;52.114;5.718;2024-01-30T06:04:56;15.90;;;10.00;;
25503;SDS011;13410;52.114;5.718;2024-01-30T06:07:22;17.70;;;10.20;;
25503;SDS011;13410;52.114;5.718;2024-01-30T06:09:47;15.23;;;9.75;;
25503;SDS011;13410;52.114;5.718;2024-01-30T06:12:13;13.65;;;9.88;;
25503;SDS011;13410;52.114;5.718;2024-01-30T06:14:39;17.30;;;10.63;;
25503;SDS011;13410;52.114;5.718;2024-01-30T06:17:04;15.10;;;9.70;;
25503;SDS011;13410;52.114;5.718;2024-01-30T06:19:30;15.93;;;9.38;;
25503;SDS011;13410;52.114;5.718;2024-01-30T06:21:56;14.60;;;10.10;;
25503;SDS011;13410;52.114;5.718;2024-01-30T06:24:22;14.90;;;9.32;;
25503;SDS011;13410;52.114;5.718;2024-01-30T06:26:48;15.70;;;9.75;;
25503;SDS011;13410;52.114;5.718;2024-01-30T06:29:13;14.02;;;9.95;;
25503;SDS011;13410;52.114;5.718;2024-01-30T06:31:42;20.05;;;10.18;;
25503;SDS011;13410;52.114;5.718;2024-01-30T06:34:11;14.70;;;9.00;;
25503;SDS011;13410;52.114;5.718;2024-01-30T06:36:37;17.27;;;11.43;;
25503;SDS011;13410;52.114;5.718;2024-01-30T06:39:03;17.08;;;10.15;;
25503;SDS011;13410;52.114;5.718;2024-01-30T06:41:29;14.68;;;10.18;;
25503;SDS011;13410;52.114;5.718;2024-01-30T06:43:55;16.48;;;9.77;;
25503;SDS011;13410;52.114;5.718;2024-01-30T06:46:21;14.35;;;9.35;;
25503;SDS011;13410;52.114;5.718;2024-01-30T06:48:47;13.60;;;9.30;;
25503;SDS011;13410;52.114;5.718;2024-01-30T06:51:12;13.65;;;8.57;;
25503;SDS011;13410;52.114;5.718;2024-01-30T06:53:38;18.75;;;9.68;;
25503;SDS011;13410;52.114;5.718;2024-01-30T06:56:04;18.65;;;11.38;;
25503;SDS011;13410;52.114;5.718;2024-01-30T06:58:30;14.40;;;9.90;;
25503;SDS011;13410;52.114;5.718;2024-01-30T07:00:58;15.55;;;10.30;;
25503;SDS011;13410;52.114;5.718;2024-01-30T07:03:23;13.13;;;9.02;;
25503;SDS011;13410;52.114;5.718;2024-01-30T07:05:49;27.85;;;14.82;;
25503;SDS011;13410;52.114;5.718;2024-01-30T07:08:15;17.00;;;11.10;;
25503;SDS011;13410;52.114;5.718;2024-01-30T07:10:42;17.05;;;10.90;;
25503;SDS011;13410;52.114;5.718;2024-01-30T07:13:08;24.45;;;13.65;;
25503;SDS011;13410;52.114;5.718;2024-01-30T07:15:35;21.63;;;10.50;;
25503;SDS011;13410;52.114;5.718;2024-01-30T07:18:01;18.55;;;12.05;;
25503;SDS011;13410;52.114;5.718;2024-01-30T07:20:27;15.05;;;10.65;;
25503;SDS011;13410;52.114;5.718;2024-01-30T07:22:55;20.00;;;12.75;;
25503;SDS011;13410;52.114;5.718;2024-01-30T07:25:22;17.42;;;10.23;;
25503;SDS011;13410;52.114;5.718;2024-01-30T07:27:51;13.93;;;9.25;;
25503;SDS011;13410;52.114;5.718;2024-01-30T07:30:20;15.82;;;10.45;;
25503;SDS011;13410;52.114;5.718;2024-01-30T07:32:47;13.48;;;8.75;;
25503;SDS011;13410;52.114;5.718;2024-01-30T07:35:13;14.98;;;10.30;;
25503;SDS011;13410;52.114;5.718;2024-01-30T07:37:40;24.67;;;15.82;;
25503;SDS011;13410;52.114;5.718;2024-01-30T07:40:06;13.23;;;8.75;;
25503;SDS011;13410;52.114;5.718;2024-01-30T07:42:32;17.13;;;10.25;;
25503;SDS011;13410;52.114;5.718;2024-01-30T07:44:58;21.10;;;12.73;;
25503;SDS011;13410;52.114;5.718;2024-01-30T07:47:26;15.57;;;9.15;;
25503;SDS011;13410;52.114;5.718;2024-01-30T07:49:51;22.40;;;11.93;;
25503;SDS011;13410;52.114;5.718;2024-01-30T07:52:19;19.55;;;10.68;;
25503;SDS011;13410;52.114;5.718;2024-01-30T07:54:49;16.35;;;9.35;;
25503;SDS011;13410;52.114;5.718;2024-01-30T07:57:15;26.13;;;16.13;;
25503;SDS011;13410;52.114;5.718;2024-01-30T07:59:42;18.83;;;9.90;;
25503;SDS011;13410;52.114;5.718;2024-01-30T08:02:14;16.67;;;9.38;;
25503;SDS011;13410;52.114;5.718;2024-01-30T08:04:39;22.23;;;12.77;;
25503;SDS011;13410;52.114;5.718;2024-01-30T08:07:06;22.15;;;10.40;;
25503;SDS011;13410;52.114;5.718;2024-01-30T08:09:31;13.95;;;8.80;;
25503;SDS011;13410;52.114;5.718;2024-01-30T08:11:57;18.17;;;10.10;;
25503;SDS011;13410;52.114;5.718;2024-01-30T08:14:23;21.65;;;11.13;;
25503;SDS011;13410;52.114;5.718;2024-01-30T08:16:49;14.05;;;9.30;;
25503;SDS011;13410;52.114;5.718;2024-01-30T08:19:15;17.60;;;8.93;;
25503;SDS011;13410;52.114;5.718;2024-01-30T08:21:40;16.08;;;9.75;;
25503;SDS011;13410;52.114;5.718;2024-01-30T08:24:07;15.00;;;8.93;;
25503;SDS011;13410;52.114;5.718;2024-01-30T08:26:33;15.73;;;10.13;;
25503;SDS011;13410;52.114;5.718;2024-01-30T08:29:00;18.42;;;10.45;;
25503;SDS011;13410;52.114;5.718;2024-01-30T08:31:26;16.45;;;9.70;;
25503;SDS011;13410;52.114;5.718;2024-01-30T08:33:51;16.77;;;9.55;;
25503;SDS011;13410;52.114;5.718;2024-01-30T08:36:17;120.50;;;48.80;;
25503;SDS011;13410;52.114;5.718;2024-01-30T08:38:43;16.75;;;10.05;;
25503;SDS011;13410;52.114;5.718;2024-01-30T08:41:10;14.68;;;8.88;;
25503;SDS011;13410;52.114;5.718;2024-01-30T08:43:35;15.38;;;9.30;;
25503;SDS011;13410;52.114;5.718;2024-01-30T08:46:01;40.05;;;19.38;;
25503;SDS011;13410;52.114;5.718;2024-01-30T08:48:27;17.02;;;9.23;;
25503;SDS011;13410;52.114;5.718;2024-01-30T08:50:53;28.17;;;14.25;;
25503;SDS011;13410;52.114;5.718;2024-01-30T08:53:19;18.50;;;9.55;;
25503;SDS011;13410;52.114;5.718;2024-01-30T08:55:44;15.80;;;9.00;;
25503;SDS011;13410;52.114;5.718;2024-01-30T08:58:10;16.27;;;9.68;;
25503;SDS011;13410;52.114;5.718;2024-01-30T09:00:36;16.83;;;9.77;;
25503;SDS011;13410;52.114;5.718;2024-01-30T09:03:02;14.68;;;8.90;;
25503;SDS011;13410;52.114;5.718;2024-01-30T09:05:29;17.33;;;10.40;;
25503;SDS011;13410;52.114;5.718;2024-01-30T09:07:55;17.98;;;8.65;;
25503;SDS011;13410;52.114;5.718;2024-01-30T09:10:21;16.63;;;8.82;;
25503;SDS011;13410;52.114;5.718;2024-01-30T09:12:47;13.80;;;8.80;;
25503;SDS011;13410;52.114;5.718;2024-01-30T09:15:14;14.93;;;8.90;;
25503;SDS011;13410;52.114;5.718;2024-01-30T09:17:40;16.90;;;9.20;;
25503;SDS011;13410;52.114;5.718;2024-01-30T09:20:06;15.00;;;9.13;;
25503;SDS011;13410;52.114;5.718;2024-01-30T09:22:32;17.05;;;9.18;;
25503;SDS011;13410;52.114;5.718;2024-01-30T09:24:58;12.88;;;8.55;;
25503;SDS011;13410;52.114;5.718;2024-01-30T09:27:23;16.85;;;9.55;;
25503;SDS011;13410;52.114;5.718;2024-01-30T09:29:49;15.43;;;9.32;;
25503;SDS011;13410;52.114;5.718;2024-01-30T09:32:16;11.90;;;7.75;;
25503;SDS011;13410;52.114;5.718;2024-01-30T09:34:42;14.02;;;8.95;;
25503;SDS011;13410;52.114;5.718;2024-01-30T09:37:08;15.68;;;9.40;;
25503;SDS011;13410;52.114;5.718;2024-01-30T09:39:34;18.88;;;10.23;;
25503;SDS011;13410;52.114;5.718;2024-01-30T09:42:17;15.10;;;8.75;;
25503;SDS011;13410;52.114;5.718;2024-01-30T09:44:52;17.27;;;9.05;;
25503;SDS011;13410;52.114;5.718;2024-01-30T09:47:18;15.73;;;8.70;;
25503;SDS011;13410;52.114;5.718;2024-01-30T09:49:44;14.60;;;8.80;;
25503;SDS011;13410;52.114;5.718;2024-01-30T09:52:10;14.38;;;8.35;;
25503;SDS011;13410;52.114;5.718;2024-01-30T09:54:36;13.88;;;8.13;;
25503;SDS011;13410;52.114;5.718;2024-01-30T09:57:04;13.75;;;9.05;;
25503;SDS011;13410;52.114;5.718;2024-01-30T09:59:30;15.25;;;10.32;;
25503;SDS011;13410;52.114;5.718;2024-01-30T10:01:57;14.98;;;10.50;;
25503;SDS011;13410;52.114;5.718;2024-01-30T10:04:24;15.70;;;9.55;;
25503;SDS011;13410;52.114;5.718;2024-01-30T10:06:50;16.30;;;8.63;;
25503;SDS011;13410;52.114;5.718;2024-01-30T10:09:16;15.23;;;9.32;;
25503;SDS011;13410;52.114;5.718;2024-01-30T10:11:42;17.33;;;9.38;;
25503;SDS011;13410;52.114;5.718;2024-01-30T10:14:07;17.17;;;9.23;;
25503;SDS011;13410;52.114;5.718;2024-01-30T10:16:36;15.90;;;9.48;;
25503;SDS011;13410;52.114;5.718;2024-01-30T10:19:02;19.38;;;9.90;;
25503;SDS011;13410;52.114;5.718;2024-01-30T10:21:28;15.48;;;8.90;;
25503;SDS011;13410;52.114;5.718;2024-01-30T10:23:55;15.77;;;8.82;;
25503;SDS011;13410;52.114;5.718;2024-01-30T10:26:21;17.63;;;9.50;;
25503;SDS011;13410;52.114;5.718;2024-01-30T10:28:47;17.30;;;9.23;;
25503;SDS011;13410;52.114;5.718;2024-01-30T10:31:17;15.00;;;9.60;;
25503;SDS011;13410;52.114;5.718;2024-01-30T10:33:46;19.02;;;10.15;;
25503;SDS011;13410;52.114;5.718;2024-01-30T10:36:13;16.55;;;9.80;;
25503;SDS011;13410;52.114;5.718;2024-01-30T10:38:42;15.73;;;9.50;;
25503;SDS011;13410;52.114;5.718;2024-01-30T10:41:11;16.38;;;9.75;;
25503;SDS011;13410;52.114;5.718;2024-01-30T10:43:43;14.70;;;9.65;;
25503;SDS011;13410;52.114;5.718;2024-01-30T10:46:19;15.80;;;9.13;;
25503;SDS011;13410;52.114;5.718;2024-01-30T10:48:51;20.70;;;8.75;;
25503;SDS011;13410;52.114;5.718;2024-01-30T10:51:27;14.80;;;8.15;;
25503;SDS011;13410;52.114;5.718;2024-01-30T10:53:53;15.60;;;8.73;;
25503;SDS011;13410;52.114;5.718;2024-01-30T10:56:21;13.93;;;7.57;;
25503;SDS011;13410;52.114;5.718;2024-01-30T10:58:48;14.38;;;7.90;;
25503;SDS011;13410;52.114;5.718;2024-01-30T11:01:16;11.43;;;7.75;;
25503;SDS011;13410;52.114;5.718;2024-01-30T11:03:43;20.10;;;9.82;;
25503;SDS011;13410;52.114;5.718;2024-01-30T11:06:12;13.27;;;7.28;;
25503;SDS011;13410;52.114;5.718;2024-01-30T11:08:43;15.98;;;7.60;;
25503;SDS011;13410;52.114;5.718;2024-01-30T11:11:09;14.68;;;8.13;;
25503;SDS011;13410;52.114;5.718;2024-01-30T11:13:35;16.70;;;8.93;;
25503;SDS011;13410;52.114;5.718;2024-01-30T11:16:02;13.45;;;7.50;;
25503;SDS011;13410;52.114;5.718;2024-01-30T11:18:29;13.15;;;7.60;;
25503;SDS011;13410;52.114;5.718;2024-01-30T11:20:56;15.32;;;7.45;;
25503;SDS011;13410;52.114;5.718;2024-01-30T11:23:23;15.23;;;7.22;;
25503;SDS011;13410;52.114;5.718;2024-01-30T11:25:49;12.65;;;6.57;;
25503;SDS011;13410;52.114;5.718;2024-01-30T11:28:17;14.18;;;6.90;;
25503;SDS011;13410;52.114;5.718;2024-01-30T11:30:43;11.90;;;7.47;;
25503;SDS011;13410;52.114;5.718;2024-01-30T11:33:10;12.35;;;6.82;;
25503;SDS011;13410;52.114;5.718;2024-01-30T11:38:04;9.82;;;6.05;;
25503;SDS011;13410;52.114;5.718;2024-01-30T11:40:31;10.65;;;6.28;;
25503;SDS011;13410;52.114;5.718;2024-01-30T11:42:58;7.90;;;5.80;;
25503;SDS011;13410;52.114;5.718;2024-01-30T11:45:28;13.32;;;6.85;;
25503;SDS011;13410;52.114;5.718;2024-01-30T11:47:54;11.30;;;5.68;;
25503;SDS011;13410;52.114;5.718;2024-01-30T11:50:22;9.93;;;6.05;;
25503;SDS011;13410;52.114;5.718;2024-01-30T11:52:48;12.20;;;5.20;;
25503;SDS011;13410;52.114;5.718;2024-01-30T11:55:14;8.82;;;4.85;;
25503;SDS011;13410;52.114;5.718;2024-01-30T11:57:40;7.32;;;4.47;;
25503;SDS011;13410;52.114;5.718;2024-01-30T12:00:28;9.73;;;5.47;;
25503;SDS011;13410;52.114;5.718;2024-01-30T12:02:58;9.60;;;4.63;;
25503;SDS011;13410;52.114;5.718;2024-01-30T12:05:26;7.80;;;3.65;;
25503;SDS011;13410;52.114;5.718;2024-01-30T12:07:53;8.43;;;3.92;;
25503;SDS011;13410;52.114;5.718;2024-01-30T12:10:18;7.57;;;4.20;;
25503;SDS011;13410;52.114;5.718;2024-01-30T12:12:51;9.18;;;3.88;;
25503;SDS011;13410;52.114;5.718;2024-01-30T12:15:18;10.43;;;4.18;;
25503;SDS011;13410;52.114;5.718;2024-01-30T12:17:46;10.05;;;3.78;;
25503;SDS011;13410;52.114;5.718;2024-01-30T12:20:13;8.45;;;4.25;;
25503;SDS011;13410;52.114;5.718;2024-01-30T12:22:42;9.23;;;3.65;;
25503;SDS011;13410;52.114;5.718;2024-01-30T12:25:09;6.22;;;2.97;;
25503;SDS011;13410;52.114;5.718;2024-01-30T12:27:36;6.43;;;2.33;;
25503;SDS011;13410;52.114;5.718;2024-01-30T12:30:08;5.20;;;2.03;;
25503;SDS011;13410;52.114;5.718;2024-01-30T12:32:39;4.15;;;1.95;;
25503;SDS011;13410;52.114;5.718;2024-01-30T12:35:08;6.45;;;1.75;;
25503;SDS011;13410;52.114;5.718;2024-01-30T12:37:45;6.28;;;2.00;;
25503;SDS011;13410;52.114;5.718;2024-01-30T12:40:13;8.55;;;2.20;;
25503;SDS011;13410;52.114;5.718;2024-01-30T12:42:45;7.10;;;2.80;;
25503;SDS011;13410;52.114;5.718;2024-01-30T12:45:13;6.25;;;3.17;;
25503;SDS011;13410;52.114;5.718;2024-01-30T12:47:48;7.03;;;2.42;;
25503;SDS011;13410;52.114;5.718;2024-01-30T12:50:14;6.90;;;2.85;;
25503;SDS011;13410;52.114;5.718;2024-01-30T12:52:43;6.53;;;3.13;;
25503;SDS011;13410;52.114;5.718;2024-01-30T12:55:10;5.28;;;3.50;;
25503;SDS011;13410;52.114;5.718;2024-01-30T12:57:35;6.28;;;3.58;;
25503;SDS011;13410;52.114;5.718;2024-01-30T13:00:01;7.55;;;3.80;;
25503;SDS011;13410;52.114;5.718;2024-01-30T13:02:27;8.32;;;4.20;;
25503;SDS011;13410;52.114;5.718;2024-01-30T13:04:59;6.22;;;4.13;;
25503;SDS011;13410;52.114;5.718;2024-01-30T13:07:25;6.95;;;4.03;;
25503;SDS011;13410;52.114;5.718;2024-01-30T13:09:51;7.43;;;4.03;;
25503;SDS011;13410;52.114;5.718;2024-01-30T13:12:17;8.25;;;4.15;;
25503;SDS011;13410;52.114;5.718;2024-01-30T13:14:43;8.57;;;3.58;;
25503;SDS011;13410;52.114;5.718;2024-01-30T13:17:09;5.82;;;3.50;;
25503;SDS011;13410;52.114;5.718;2024-01-30T13:19:35;8.43;;;3.60;;
25503;SDS011;13410;52.114;5.718;2024-01-30T13:22:00;6.90;;;3.65;;
25503;SDS011;13410;52.114;5.718;2024-01-30T13:24:27;9.48;;;4.22;;
25503;SDS011;13410;52.114;5.718;2024-01-30T13:26:53;10.32;;;4.13;;
25503;SDS011;13410;52.114;5.718;2024-01-30T13:29:19;9.02;;;4.82;;
25503;SDS011;13410;52.114;5.718;2024-01-30T13:31:45;12.43;;;5.20;;
25503;SDS011;13410;52.114;5.718;2024-01-30T13:34:11;10.90;;;4.97;;
25503;SDS011;13410;52.114;5.718;2024-01-30T13:36:38;11.13;;;6.10;;
25503;SDS011;13410;52.114;5.718;2024-01-30T13:39:04;9.75;;;6.13;;
25503;SDS011;13410;52.114;5.718;2024-01-30T13:41:34;14.48;;;7.72;;
25503;SDS011;13410;52.114;5.718;2024-01-30T13:44:01;13.88;;;6.45;;
25503;SDS011;13410;52.114;5.718;2024-01-30T13:46:28;10.07;;;4.90;;
25503;SDS011;13410;52.114;5.718;2024-01-30T13:48:54;11.10;;;5.32;;
25503;SDS011;13410;52.114;5.718;2024-01-30T13:51:20;10.57;;;4.60;;
25503;SDS011;13410;52.114;5.718;2024-01-30T13:53:45;9.88;;;5.38;;
25503;SDS011;13410;52.114;5.718;2024-01-30T13:56:11;7.75;;;4.40;;
25503;SDS011;13410;52.114;5.718;2024-01-30T13:58:37;12.38;;;5.28;;
25503;SDS011;13410;52.114;5.718;2024-01-30T14:01:02;11.82;;;5.85;;
25503;SDS011;13410;52.114;5.718;2024-01-30T14:03:28;9.23;;;4.90;;
25503;SDS011;13410;52.114;5.718;2024-01-30T14:05:54;11.98;;;4.60;;
25503;SDS011;13410;52.114;5.718;2024-01-30T14:08:19;7.80;;;3.72;;
25503;SDS011;13410;52.114;5.718;2024-01-30T14:10:51;11.68;;;4.95;;
25503;SDS011;13410;52.114;5.718;2024-01-30T14:13:17;8.65;;;3.00;;
25503;SDS011;13410;52.114;5.718;2024-01-30T14:15:43;10.60;;;6.05;;
25503;SDS011;13410;52.114;5.718;2024-01-30T14:18:09;9.70;;;3.60;;
25503;SDS011;13410;52.114;5.718;2024-01-30T14:20:36;6.35;;;3.40;;
25503;SDS011;13410;52.114;5.718;2024-01-30T14:23:01;7.50;;;3.55;;
25503;SDS011;13410;52.114;5.718;2024-01-30T14:25:27;5.80;;;3.35;;
25503;SDS011;13410;52.114;5.718;2024-01-30T14:27:52;7.93;;;4.82;;